Napa, CA

3:40 PM PDT on September 16, 2014 (GMT -0700)
Napa County | Change Station
CLOSE
Current Station
Airport
Location: Napa County,
Elevation: 33 ft
Nearby Weather Stations

Elev 33 ft 38.21 °N, 122.28 °W | Updated 46 minutes ago

Clear
Clear
82 °F
Feels Like 82 °F
N
12
Wind Variable Wind from SSW

Today
High -- | Low -- °F
--% Chance of Precip.
Yesterday
High -- | Low -- °F
Precip. -- in
6:51 AM 7:15 PM
Last Quarter, 42% visible
Pressure 29.80 in
Visibility 10.0 miles
Clouds Clear
Heat Index 82 °F
Dew Point 56 °F
Humidity 41%
Rainfall 0.00 in
Snow Depth 0 in , 0 in , 0 in
UV 7 out of 12
Pollen 6.40 out of 12
Air Quality Not available.
Flu Activity Not available.
METAR KAPC 162154Z AUTO 20010KT 10SM CLR 28/13 A2983 RMK AO2 SLP091 T02780133

More Conditions Fewer Conditions

Pressure 29.80 in
Visibility 10.0 miles
Clouds Clear
Heat Index 82 °F
Dew Point 56 °F
Humidity 41%
Rainfall 0.00 in
Snow Depth 0 in , 0 in , 0 in
UV 7 out of 12
Pollen 6.40 out of 12
Air Quality Not available.
Flu Activity Not available.
METAR KAPC 162154Z AUTO 20010KT 10SM CLR 28/13 A2983 RMK AO2 SLP091 T02780133

More Conditions Fewer Conditions

10-Day Weather Forecast

Almanac

Astronomy

Sep. 16, 2014 Rise Set
Actual Time 6:51 AM PDT 7:15 PM PDT
Civil Twilight 6:25 AM PDT 7:42 PM PDT
Nautical Twilight 5:54 AM PDT 8:13 PM PDT
Astronomical Twilight 5:22 AM PDT 8:44 PM PDT
Moon 12:09 AM PDT 2:40 PM PDT
Length of Visible Light 13h 16m
Length of Day
12h 23m
Tomorrow will be 2m 27s shorter.
Last Quarter, 42% of the Moon is Illuminated
Today
Last Quarter
Sep 24
New
Oct 1
First Quarter
Oct 8
Full
Oct 15
Last Quarter

Today's Extremes

State Highs State Lows

Community

WunderPhotos

Upload Photos

1,753,897 photos uploaded!

Nearby

Air Quality

  Air Quality AQ Index Pollutant
Yesterday Good
PM2.5
Yesterday Good
OZONE
Tuesday Good
PM2.5
Wednesday Good
PM2.5
Thursday Good
PM2.5
Friday Good
PM2.5
Saturday Good
PM2.5
Sunday Good
PM2.5

Snow Depth

Station Depth Elevation
Leavitt Meadows 0 in 7200 ft
Adin Mountain 0 in 6200 ft
Summit Meadow 0 in 9122 ft
CSS Lab 1 in 6900 ft

Earthquake Activity

City Distance Mag. Time & Date
Cobb, California 35 miles 2.8 1:23 PM PDT
2014-09-16
Covelo, California 104 miles 3.3 1:17 PM PDT
2014-09-14
Cobb, California 40 miles 2.7 11:07 AM PDT
2014-09-14
Minimum magnitude displayed is 2.5.

Coastal Water Temperatures

Place Temperature
San Francisco, CA 64.9 °F
Richmond, CA 68.0 °F
Port Chicago, CA 70.0 °F

Nearby Weather Stations